createdAt,value
2024-01-09T00:02:12.894Z,-0.84
2024-01-09T00:04:40.463Z,-0.81
2024-01-09T00:07:07.828Z,-0.69
2024-01-09T00:09:35.969Z,-0.76
2024-01-09T00:12:03.959Z,-0.87
2024-01-09T00:14:31.471Z,-0.81
2024-01-09T00:16:59.206Z,-0.80
2024-01-09T00:19:27.336Z,-0.65
2024-01-09T00:21:57.171Z,-0.86
2024-01-09T00:24:24.714Z,-0.92
2024-01-09T00:26:52.332Z,-0.93
2024-01-09T00:29:21.373Z,-0.77
2024-01-09T00:31:48.967Z,-0.76
2024-01-09T00:34:16.686Z,-0.67
2024-01-09T00:36:45.624Z,-0.75
2024-01-09T00:39:13.139Z,-0.77
2024-01-09T00:41:40.525Z,-0.60
2024-01-09T00:44:07.940Z,-0.69
2024-01-09T00:46:35.443Z,-0.85
2024-01-09T00:49:03.179Z,-0.78
2024-01-09T00:51:30.849Z,-0.82
2024-01-09T00:53:58.484Z,-1.01
2024-01-09T00:56:26.075Z,-0.85
2024-01-09T00:58:53.553Z,-0.82
2024-01-09T01:01:21.087Z,-0.73
2024-01-09T01:03:48.961Z,-0.81
2024-01-09T01:06:16.708Z,-0.66
2024-01-09T01:08:44.362Z,-0.65
2024-01-09T01:11:11.888Z,-0.64
2024-01-09T01:13:39.310Z,-0.60
2024-01-09T01:16:06.937Z,-0.53
2024-01-09T01:18:34.550Z,-0.67
2024-01-09T01:21:02.116Z,-0.83
2024-01-09T01:23:29.795Z,-0.68
2024-01-09T01:25:57.425Z,-0.75
2024-01-09T01:28:25.053Z,-0.73
2024-01-09T01:30:52.713Z,-0.78
2024-01-09T01:33:20.276Z,-0.79
2024-01-09T01:35:47.845Z,-0.79
2024-01-09T01:38:15.501Z,-0.75
2024-01-09T01:40:43.208Z,-0.70
2024-01-09T01:43:10.836Z,-0.80
2024-01-09T01:45:38.352Z,-0.84
2024-01-09T01:48:06.799Z,-0.91
2024-01-09T01:50:35.592Z,-0.81
2024-01-09T01:53:05.619Z,-0.92
2024-01-09T01:55:34.700Z,-0.95
2024-01-09T01:58:04.004Z,-0.88
2024-01-09T02:00:32.364Z,-0.80
2024-01-09T02:03:00.148Z,-0.81
2024-01-09T02:05:30.713Z,-0.68
2024-01-09T02:07:59.294Z,-0.92
2024-01-09T02:10:26.805Z,-0.79
2024-01-09T02:12:55.352Z,-0.70
2024-01-09T02:15:22.939Z,-0.61
2024-01-09T02:17:50.955Z,-0.66
2024-01-09T02:20:22.408Z,-0.64
2024-01-09T02:22:51.115Z,-0.81
2024-01-09T02:25:18.684Z,-0.74
2024-01-09T02:28:03.038Z,-0.73
2024-01-09T02:30:31.534Z,-0.73
2024-01-09T02:32:59.236Z,-0.79
2024-01-09T02:35:27.215Z,-0.81
2024-01-09T02:37:54.917Z,-0.84
2024-01-09T02:40:23.813Z,-0.87
2024-01-09T02:42:52.509Z,-0.76
2024-01-09T02:45:19.979Z,-0.73
2024-01-09T02:47:48.513Z,-0.79
2024-01-09T02:50:16.248Z,-0.74
2024-01-09T02:52:43.839Z,-0.87
2024-01-09T02:55:11.340Z,-0.84
2024-01-09T02:57:41.684Z,-0.89
2024-01-09T03:00:10.393Z,-0.81
2024-01-09T03:02:38.694Z,-0.84
2024-01-09T03:05:08.333Z,-0.84
2024-01-09T03:07:36.245Z,-0.67
2024-01-09T03:10:04.266Z,-0.63
2024-01-09T03:12:31.832Z,-0.50
2024-01-09T03:14:59.375Z,-0.27
2024-01-09T03:17:27.066Z,-0.31
2024-01-09T03:19:54.579Z,-0.23
2024-01-09T03:22:21.949Z,-0.39
2024-01-09T03:24:49.360Z,-0.44
2024-01-09T03:27:16.804Z,-0.33
2024-01-09T03:29:44.323Z,-0.44
2024-01-09T03:32:11.860Z,-0.46
2024-01-09T03:34:43.299Z,-0.49
2024-01-09T03:37:11.327Z,-0.45
2024-01-09T03:39:38.843Z,-0.40
2024-01-09T03:42:06.416Z,-0.46
2024-01-09T03:44:34.159Z,-0.47
2024-01-09T03:47:01.712Z,-0.40
2024-01-09T03:49:29.308Z,-0.32
2024-01-09T03:51:58.904Z,-0.33
2024-01-09T03:54:26.344Z,-0.27
2024-01-09T03:56:53.725Z,-0.34
2024-01-09T03:59:21.110Z,-0.23
2024-01-09T04:01:48.588Z,-0.17
2024-01-09T04:04:15.917Z,-0.50
2024-01-09T04:06:45.841Z,-0.54
2024-01-09T04:09:13.632Z,-0.50
2024-01-09T04:11:48.286Z,-0.42
2024-01-09T04:14:16.154Z,-0.43
2024-01-09T04:16:49.910Z,-0.53
2024-01-09T04:19:17.522Z,-0.43
2024-01-09T04:21:45.053Z,-0.41
2024-01-09T04:24:12.391Z,-0.39
2024-01-09T04:26:39.955Z,-0.44
2024-01-09T04:29:07.560Z,-0.49
2024-01-09T04:31:35.086Z,-0.51
2024-01-09T04:34:02.741Z,-0.42
2024-01-09T04:36:30.242Z,-0.42
2024-01-09T04:39:00.437Z,-0.44
2024-01-09T04:41:27.919Z,-0.37
2024-01-09T04:43:55.621Z,-0.35
2024-01-09T04:46:23.060Z,-0.32
2024-01-09T04:48:50.629Z,-0.31
2024-01-09T04:51:18.111Z,-0.39
2024-01-09T04:53:45.469Z,-0.38
2024-01-09T04:56:13.806Z,-0.29
2024-01-09T04:58:41.299Z,-0.16
2024-01-09T05:01:12.565Z,-0.13
2024-01-09T05:03:40.296Z,-0.14
2024-01-09T05:06:07.969Z,-0.05
2024-01-09T05:08:35.772Z,-0.03
2024-01-09T05:11:03.815Z,0.03
2024-01-09T05:13:32.410Z,0.00
2024-01-09T05:15:59.930Z,0.29
2024-01-09T05:18:27.305Z,0.19
2024-01-09T05:20:54.866Z,0.24
2024-01-09T05:23:22.393Z,0.21
2024-01-09T05:25:49.822Z,-0.01
2024-01-09T05:28:17.361Z,0.14
2024-01-09T05:30:44.981Z,0.23
2024-01-09T05:33:12.853Z,0.02
2024-01-09T05:35:40.470Z,-0.13
2024-01-09T05:38:14.946Z,-0.09
2024-01-09T05:40:47.768Z,0.10
2024-01-09T05:43:15.442Z,0.08
2024-01-09T05:45:42.997Z,-0.01
2024-01-09T05:48:10.797Z,-0.08
2024-01-09T05:50:38.436Z,0.10
2024-01-09T05:53:05.959Z,-0.03
2024-01-09T05:55:33.359Z,-0.15
2024-01-09T05:58:00.626Z,-0.23
2024-01-09T06:00:28.017Z,-0.29
2024-01-09T06:02:55.471Z,-0.23
2024-01-09T06:05:23.056Z,-0.31
2024-01-09T06:07:50.727Z,-0.28
2024-01-09T06:10:18.311Z,-0.31
2024-01-09T06:12:45.886Z,-0.38
2024-01-09T06:15:13.257Z,-0.36
2024-01-09T06:17:40.917Z,-0.45
2024-01-09T06:20:09.047Z,-0.44
2024-01-09T06:22:36.494Z,-0.51
2024-01-09T06:25:04.332Z,-0.47
2024-01-09T06:27:31.687Z,-0.47
2024-01-09T06:29:59.167Z,-0.51
2024-01-09T06:32:26.842Z,-0.67
2024-01-09T06:34:54.423Z,-0.76
2024-01-09T06:37:21.923Z,-0.83
2024-01-09T06:39:49.393Z,-0.90
2024-01-09T06:42:17.188Z,-0.70
2024-01-09T06:44:44.779Z,-0.83
2024-01-09T06:47:12.346Z,-0.73
2024-01-09T06:49:40.025Z,-0.81
2024-01-09T06:52:07.648Z,-0.95
2024-01-09T06:54:35.042Z,-0.92
2024-01-09T06:57:02.446Z,-0.94
2024-01-09T06:59:30.056Z,-0.99
2024-01-09T07:01:57.604Z,-0.87
2024-01-09T07:04:25.552Z,-1.02
2024-01-09T07:06:53.419Z,-0.83
2024-01-09T07:09:21.065Z,-0.80
2024-01-09T07:11:48.666Z,-0.74
2024-01-09T07:14:16.277Z,-0.71
2024-01-09T07:16:43.877Z,-0.69
2024-01-09T07:19:11.526Z,-0.71
2024-01-09T07:21:39.109Z,-0.87
2024-01-09T07:24:06.778Z,-0.81
2024-01-09T07:26:40.918Z,-0.73
2024-01-09T07:29:09.430Z,-0.81
2024-01-09T07:31:36.988Z,-0.83
2024-01-09T07:34:04.901Z,-0.79
2024-01-09T07:36:32.624Z,-0.92
2024-01-09T07:39:00.081Z,-0.98
2024-01-09T07:41:27.882Z,-1.25
2024-01-09T07:43:59.426Z,-1.21
2024-01-09T07:46:28.126Z,-1.30
2024-01-09T07:48:55.794Z,-1.27
2024-01-09T07:51:23.368Z,-1.40
2024-01-09T07:53:51.003Z,-1.30
2024-01-09T07:56:20.109Z,-1.23
2024-01-09T07:58:47.918Z,-1.25
2024-01-09T08:01:16.666Z,-1.34
2024-01-09T08:03:44.374Z,-1.48
2024-01-09T08:06:16.473Z,-1.47
2024-01-09T08:08:47.268Z,-1.41
2024-01-09T08:11:17.827Z,-1.42
2024-01-09T08:13:45.570Z,-1.33
2024-01-09T08:16:13.173Z,-1.32
2024-01-09T08:18:40.966Z,-1.11
2024-01-09T08:21:08.660Z,-1.10
2024-01-09T08:23:37.025Z,-1.05
2024-01-09T08:26:04.952Z,-1.23
2024-01-09T08:28:32.537Z,-1.14
2024-01-09T08:31:00.119Z,-1.18
2024-01-09T08:33:32.042Z,-1.07
2024-01-09T08:36:00.334Z,-1.04
2024-01-09T08:38:27.991Z,-1.06
2024-01-09T08:40:57.530Z,-0.98
2024-01-09T08:43:25.548Z,-0.99
2024-01-09T08:45:54.723Z,-0.88
2024-01-09T08:48:23.855Z,-0.74
2024-01-09T08:50:51.953Z,-0.63
2024-01-09T08:53:19.621Z,-0.63
2024-01-09T08:55:47.199Z,-0.65
2024-01-09T08:58:14.750Z,-0.72
2024-01-09T09:00:42.365Z,-0.94
2024-01-09T09:03:10.110Z,-0.92
2024-01-09T09:05:38.043Z,-0.96
2024-01-09T09:08:05.835Z,-1.08
2024-01-09T09:10:33.393Z,-1.10
2024-01-09T09:13:00.792Z,-1.12
2024-01-09T09:15:28.270Z,-1.03
2024-01-09T09:17:56.402Z,-0.84
2024-01-09T09:20:24.288Z,-0.86
2024-01-09T09:22:52.933Z,-0.87
2024-01-09T09:25:20.540Z,-0.76
2024-01-09T09:27:48.188Z,-0.58
2024-01-09T09:30:15.972Z,-0.38
2024-01-09T09:32:43.606Z,-0.09
2024-01-09T09:35:11.349Z,0.27
2024-01-09T09:37:38.910Z,0.65
2024-01-09T09:40:06.645Z,1.05
2024-01-09T09:42:36.658Z,1.28
2024-01-09T09:45:10.706Z,1.46
2024-01-09T09:47:40.182Z,1.45
2024-01-09T09:50:11.403Z,1.60
2024-01-09T09:52:43.589Z,1.70
2024-01-09T09:55:11.326Z,1.59
2024-01-09T09:57:39.157Z,1.50
2024-01-09T10:00:10.721Z,1.43
2024-01-09T10:02:52.433Z,1.39
2024-01-09T10:05:20.720Z,1.33
2024-01-09T10:07:51.523Z,1.22
2024-01-09T10:10:21.714Z,1.11
2024-01-09T10:12:49.715Z,1.16
2024-01-09T10:15:19.072Z,1.10
2024-01-09T10:17:47.586Z,0.84
2024-01-09T10:20:17.193Z,0.75
2024-01-09T10:22:45.024Z,0.71
2024-01-09T10:25:14.446Z,0.64
2024-01-09T10:27:42.441Z,0.51
2024-01-09T10:30:11.756Z,0.46
2024-01-09T10:32:45.006Z,0.37
2024-01-09T10:35:14.882Z,0.19
2024-01-09T10:37:45.816Z,0.37
2024-01-09T10:40:14.279Z,0.36
2024-01-09T10:42:48.775Z,0.35
2024-01-09T10:45:18.275Z,0.53
2024-01-09T10:47:46.994Z,0.48
2024-01-09T10:50:16.930Z,0.37
2024-01-09T10:52:45.990Z,0.26
2024-01-09T10:55:14.088Z,0.28
2024-01-09T10:57:42.712Z,0.42
2024-01-09T11:00:12.963Z,0.51
2024-01-09T11:02:41.631Z,0.79
2024-01-09T11:05:12.214Z,0.88
2024-01-09T11:07:44.153Z,1.12
2024-01-09T11:10:17.792Z,1.09
2024-01-09T11:12:50.147Z,1.22
2024-01-09T11:15:26.386Z,1.40
2024-01-09T11:17:59.505Z,1.51
2024-01-09T11:20:28.641Z,1.57
2024-01-09T11:22:56.345Z,1.65
2024-01-09T11:25:25.741Z,1.72
2024-01-09T11:27:55.041Z,1.69
2024-01-09T11:30:34.616Z,1.82
2024-01-09T11:33:33.927Z,1.94
2024-01-09T11:36:06.576Z,1.82
2024-01-09T11:38:35.476Z,1.89
2024-01-09T11:41:07.391Z,1.96
2024-01-09T11:44:03.862Z,1.98
2024-01-09T11:46:36.844Z,2.07
2024-01-09T11:49:06.658Z,2.16
2024-01-09T11:51:35.917Z,2.14
2024-01-09T11:54:05.955Z,2.11
2024-01-09T11:56:33.894Z,1.97
2024-01-09T11:59:02.294Z,1.81
2024-01-09T12:01:30.115Z,1.70
2024-01-09T12:03:58.654Z,1.51
2024-01-09T12:06:30.398Z,1.32
2024-01-09T12:08:59.180Z,1.34
2024-01-09T12:11:26.733Z,1.39
2024-01-09T12:14:04.138Z,1.26
2024-01-09T12:16:33.173Z,1.04
2024-01-09T12:19:02.558Z,0.94
2024-01-09T12:21:33.076Z,0.95
2024-01-09T12:24:19.564Z,0.99
2024-01-09T12:26:50.497Z,0.87
2024-01-09T12:29:18.506Z,0.73
2024-01-09T12:31:46.628Z,0.85
2024-01-09T12:34:14.404Z,1.01
2024-01-09T12:36:42.066Z,1.14
2024-01-09T12:39:14.101Z,1.03
2024-01-09T12:41:42.389Z,1.09
2024-01-09T12:44:11.186Z,1.04
2024-01-09T12:46:42.301Z,1.12
2024-01-09T12:49:10.036Z,1.28
2024-01-09T12:51:37.588Z,1.21
2024-01-09T12:54:05.030Z,1.38
2024-01-09T12:56:32.586Z,1.21
2024-01-09T12:59:00.090Z,1.23
2024-01-09T13:01:29.814Z,1.36
2024-01-09T13:03:59.480Z,1.10
2024-01-09T13:06:27.491Z,1.18
2024-01-09T13:08:55.298Z,1.14
2024-01-09T13:11:23.026Z,1.22
2024-01-09T13:13:50.624Z,1.11
2024-01-09T13:16:19.493Z,0.99
2024-01-09T13:18:47.249Z,0.78
2024-01-09T13:21:14.803Z,0.66
2024-01-09T13:23:49.452Z,0.65
2024-01-09T13:26:20.316Z,0.73
2024-01-09T13:31:19.522Z,0.58
2024-01-09T13:33:47.372Z,0.64
2024-01-09T13:36:17.192Z,0.72
2024-01-09T13:38:46.738Z,0.75
2024-01-09T13:41:16.875Z,0.75
2024-01-09T13:43:44.837Z,0.65
2024-01-09T13:46:12.992Z,0.66
2024-01-09T13:48:42.088Z,0.70
2024-01-09T13:51:49.872Z,0.90
2024-01-09T13:53:58.015Z,0.88
2024-01-09T13:56:27.699Z,0.89
2024-01-09T13:58:56.063Z,0.91
2024-01-09T14:01:30.464Z,1.02
2024-01-09T14:04:06.675Z,0.74
2024-01-09T14:06:34.537Z,0.79
2024-01-09T14:09:02.216Z,0.78
2024-01-09T14:11:29.790Z,0.95
2024-01-09T14:13:58.821Z,0.89
2024-01-09T14:16:26.429Z,0.93
2024-01-09T14:18:54.474Z,0.97
2024-01-09T14:21:21.976Z,1.00
2024-01-09T14:23:50.249Z,0.85
2024-01-09T14:26:21.878Z,0.87
2024-01-09T14:28:49.777Z,0.92
2024-01-09T14:31:17.344Z,0.86
2024-01-09T14:33:44.806Z,0.82
2024-01-09T14:36:12.377Z,0.93
2024-01-09T14:38:40.100Z,1.13
2024-01-09T14:41:11.776Z,0.91
2024-01-09T14:43:42.528Z,0.89
2024-01-09T14:46:16.887Z,0.86
2024-01-09T14:48:44.774Z,0.94
2024-01-09T14:51:12.278Z,0.94
2024-01-09T14:53:39.631Z,1.03
2024-01-09T14:56:07.105Z,1.00
2024-01-09T14:58:35.354Z,0.94
2024-01-09T15:01:03.246Z,0.75
2024-01-09T15:03:30.830Z,0.68
2024-01-09T15:05:58.430Z,0.65
2024-01-09T15:08:26.263Z,0.55
2024-01-09T15:10:54.739Z,0.56
2024-01-09T15:13:22.292Z,0.76
2024-01-09T15:15:49.895Z,0.71
2024-01-09T15:18:17.377Z,0.88
2024-01-09T15:20:44.807Z,0.81
2024-01-09T15:23:13.587Z,0.78
2024-01-09T15:25:41.672Z,0.67
2024-01-09T15:28:09.726Z,0.69
2024-01-09T15:30:37.385Z,0.69
2024-01-09T15:33:09.382Z,0.63
2024-01-09T15:35:37.960Z,0.55
2024-01-09T15:38:06.265Z,0.56
2024-01-09T15:40:34.019Z,0.58
2024-01-09T15:43:01.641Z,0.78
2024-01-09T15:45:28.958Z,0.76
2024-01-09T15:47:58.388Z,0.80
2024-01-09T15:50:26.142Z,0.75
2024-01-09T15:52:53.807Z,0.49
2024-01-09T15:55:21.445Z,0.70
2024-01-09T15:57:49.131Z,0.67
2024-01-09T16:00:17.916Z,0.65
2024-01-09T16:02:45.880Z,0.65
2024-01-09T16:05:14.229Z,0.63
2024-01-09T16:07:41.990Z,0.69
2024-01-09T16:10:10.344Z,0.77
2024-01-09T16:12:38.050Z,0.75
2024-01-09T16:15:06.077Z,0.54
2024-01-09T16:17:34.906Z,0.55
2024-01-09T16:20:02.956Z,0.55
2024-01-09T16:22:31.047Z,0.48
2024-01-09T16:24:59.373Z,0.45
2024-01-09T16:27:26.931Z,0.26
2024-01-09T16:29:54.421Z,0.33
2024-01-09T16:32:23.160Z,0.30
2024-01-09T16:34:50.983Z,0.30
2024-01-09T16:37:18.488Z,0.47
2024-01-09T16:39:45.937Z,0.42
2024-01-09T16:42:17.605Z,0.35
2024-01-09T16:44:45.177Z,0.21
2024-01-09T16:47:12.792Z,0.15
2024-01-09T16:49:43.445Z,0.08
2024-01-09T16:52:11.270Z,0.09
2024-01-09T16:54:39.399Z,0.11
2024-01-09T16:57:07.263Z,0.02
2024-01-09T16:59:34.794Z,-0.08
2024-01-09T17:02:03.730Z,0.01
2024-01-09T17:04:31.666Z,0.04
2024-01-09T17:06:59.203Z,0.10
2024-01-09T17:09:26.531Z,0.00
2024-01-09T17:11:53.983Z,-0.14
2024-01-09T17:14:22.985Z,-0.18
2024-01-09T17:16:53.304Z,-0.15
2024-01-09T17:19:24.479Z,-0.19
2024-01-09T17:21:52.456Z,-0.09
2024-01-09T17:24:19.983Z,-0.08
2024-01-09T17:26:47.503Z,0.01
2024-01-09T17:29:15.008Z,0.03
2024-01-09T17:31:44.425Z,0.14
2024-01-09T17:34:12.529Z,0.07
2024-01-09T17:36:40.148Z,0.04
2024-01-09T17:39:10.088Z,0.09
2024-01-09T17:41:40.638Z,0.15
2024-01-09T17:44:08.726Z,0.03
2024-01-09T17:46:40.428Z,-0.08
2024-01-09T17:49:08.307Z,0.05
2024-01-09T17:51:40.552Z,0.10
2024-01-09T17:54:08.222Z,0.09
2024-01-09T17:57:10.024Z,0.01
2024-01-09T17:59:40.235Z,0.09
2024-01-09T18:02:07.744Z,0.18
2024-01-09T18:04:38.468Z,0.13
2024-01-09T18:07:10.177Z,-0.04
2024-01-09T18:09:37.937Z,-0.06
2024-01-09T18:12:06.766Z,-0.01
2024-01-09T18:14:34.326Z,-0.01
2024-01-09T18:17:02.051Z,0.04
2024-01-09T18:19:29.917Z,-0.06
2024-01-09T18:21:59.598Z,-0.09
2024-01-09T18:24:27.402Z,0.00
2024-01-09T18:26:57.195Z,-0.01
2024-01-09T18:29:24.949Z,-0.15
2024-01-09T18:31:56.093Z,-0.03
2024-01-09T18:34:24.209Z,-0.15
2024-01-09T18:36:52.046Z,-0.13
2024-01-09T18:39:23.275Z,-0.20
2024-01-09T18:41:58.203Z,-0.30
2024-01-09T18:44:28.095Z,-0.23
2024-01-09T18:46:56.663Z,-0.27
2024-01-09T18:49:25.802Z,-0.21
2024-01-09T18:51:54.463Z,-0.13
2024-01-09T18:54:24.892Z,-0.23
2024-01-09T18:56:52.783Z,-0.15
2024-01-09T18:59:26.029Z,-0.16
2024-01-09T19:01:58.406Z,-0.05
2024-01-09T19:04:27.592Z,-0.09
2024-01-09T19:06:55.285Z,-0.19
2024-01-09T19:09:23.755Z,-0.19
2024-01-09T19:11:51.516Z,-0.15
2024-01-09T19:14:19.627Z,-0.05
2024-01-09T19:16:47.836Z,0.05
2024-01-09T19:19:17.236Z,0.11
2024-01-09T19:21:46.666Z,0.10
2024-01-09T19:24:17.389Z,-0.06
2024-01-09T19:26:46.121Z,-0.03
2024-01-09T19:29:17.133Z,0.04
2024-01-09T19:31:44.901Z,0.00
2024-01-09T19:34:12.964Z,-0.05
2024-01-09T19:36:45.393Z,0.05
2024-01-09T19:39:13.197Z,-0.06
2024-01-09T19:41:40.856Z,-0.15
2024-01-09T19:44:09.098Z,-0.07
2024-01-09T19:46:41.288Z,-0.05
2024-01-09T19:49:09.030Z,-0.01
2024-01-09T19:51:37.446Z,0.11
2024-01-09T19:54:10.902Z,0.12
2024-01-09T19:56:40.348Z,0.47
2024-01-09T19:59:08.717Z,0.44
2024-01-09T20:01:36.786Z,0.64
2024-01-09T20:04:04.606Z,0.49
2024-01-09T20:06:32.525Z,0.39
2024-01-09T20:09:00.155Z,0.50
2024-01-09T20:11:31.506Z,0.42
2024-01-09T20:14:02.596Z,0.30
2024-01-09T20:16:30.480Z,0.17
2024-01-09T20:18:58.623Z,0.29
2024-01-09T20:21:29.999Z,0.43
2024-01-09T20:23:58.165Z,0.36
2024-01-09T20:26:33.437Z,0.38
2024-01-09T20:29:01.024Z,0.21
2024-01-09T20:31:31.836Z,0.01
2024-01-09T20:33:59.743Z,0.21
2024-01-09T20:36:27.909Z,0.28
2024-01-09T20:38:58.695Z,0.37
2024-01-09T20:41:28.874Z,0.50
2024-01-09T20:43:56.599Z,0.50
2024-01-09T20:46:24.729Z,0.38
2024-01-09T20:48:52.291Z,0.49
2024-01-09T20:51:19.784Z,0.37
2024-01-09T20:53:47.250Z,0.42
2024-01-09T20:56:15.939Z,0.29
2024-01-09T20:58:43.609Z,0.34
2024-01-09T21:01:11.134Z,0.35
2024-01-09T21:03:38.842Z,0.21
2024-01-09T21:06:08.654Z,0.15
2024-01-09T21:08:36.189Z,0.34
2024-01-09T21:11:03.719Z,0.49
2024-01-09T21:13:31.401Z,0.55
2024-01-09T21:16:00.893Z,0.54
2024-01-09T21:18:28.589Z,0.44
2024-01-09T21:20:57.604Z,0.49
2024-01-09T21:23:31.835Z,0.43
2024-01-09T21:26:05.597Z,0.33
2024-01-09T21:28:33.127Z,0.30
2024-01-09T21:31:00.736Z,0.24
2024-01-09T21:33:28.436Z,0.32
2024-01-09T21:35:56.138Z,0.36
2024-01-09T21:38:23.808Z,0.42
2024-01-09T21:40:57.941Z,0.47
2024-01-09T21:43:26.875Z,0.48
2024-01-09T21:45:54.553Z,0.36
2024-01-09T21:48:22.205Z,0.39
2024-01-09T21:50:49.962Z,0.40
2024-01-09T21:53:17.587Z,0.28
2024-01-09T21:55:45.377Z,0.22
2024-01-09T21:58:13.918Z,0.34
2024-01-09T22:00:41.608Z,0.33
2024-01-09T22:03:09.316Z,0.28
2024-01-09T22:05:37.011Z,0.23
2024-01-09T22:08:04.829Z,0.24
2024-01-09T22:10:33.247Z,0.32
2024-01-09T22:13:00.891Z,0.28
2024-01-09T22:15:28.341Z,0.24
2024-01-09T22:17:55.853Z,0.07
2024-01-09T22:25:54.747Z,0.30
2024-01-09T22:28:22.325Z,0.22
2024-01-09T22:30:50.468Z,0.32
2024-01-09T22:33:18.845Z,0.29
2024-01-09T22:35:47.568Z,0.46
2024-01-09T22:38:15.437Z,0.53
2024-01-09T22:40:43.132Z,0.32
2024-01-09T22:43:10.832Z,0.40
2024-01-09T22:45:38.416Z,0.45
2024-01-09T22:48:06.107Z,0.33
2024-01-09T22:50:33.851Z,0.40
2024-01-09T22:53:02.253Z,0.34
2024-01-09T22:55:29.791Z,0.17
2024-01-09T22:57:57.184Z,0.15
2024-01-09T23:00:26.838Z,0.08
2024-01-09T23:02:57.450Z,0.06
2024-01-09T23:05:26.942Z,0.04
2024-01-09T23:07:55.263Z,0.11
2024-01-09T23:10:23.053Z,0.08
2024-01-09T23:12:50.512Z,0.01
2024-01-09T23:15:18.014Z,-0.04
2024-01-09T23:17:45.671Z,-0.19
2024-01-09T23:20:15.596Z,-0.14
2024-01-09T23:22:43.417Z,-0.12
2024-01-09T23:25:12.696Z,-0.02
2024-01-09T23:27:40.335Z,-0.02
2024-01-09T23:30:08.750Z,-0.16
2024-01-09T23:32:36.494Z,0.01
2024-01-09T23:35:04.652Z,-0.06
2024-01-09T23:37:34.696Z,-0.14
2024-01-09T23:40:02.419Z,-0.21
2024-01-09T23:42:29.984Z,-0.24
2024-01-09T23:44:57.341Z,-0.23
2024-01-09T23:47:24.904Z,-0.24
2024-01-09T23:49:52.553Z,-0.31
2024-01-09T23:52:20.156Z,-0.23
2024-01-09T23:54:48.224Z,-0.33
2024-01-09T23:57:15.860Z,-0.23
2024-01-09T23:59:43.429Z,-0.20
